createdAt,value
2019-02-26T00:00:58.739Z,5.87
2019-02-26T00:02:02.660Z,5.87
2019-02-26T00:03:04.628Z,5.81
2019-02-26T00:03:44.726Z,5.81
2019-02-26T00:04:44.797Z,5.75
2019-02-26T00:06:01.544Z,5.69
2019-02-26T00:07:00.322Z,5.62
2019-02-26T00:08:02.694Z,5.5
2019-02-26T00:09:03.806Z,5.44
2019-02-26T00:09:45.065Z,5.31
2019-02-26T00:10:46.240Z,5.19
2019-02-26T00:11:46.523Z,5.25
2019-02-26T00:12:45.026Z,5.19
2019-02-26T00:13:44.837Z,5.25
2019-02-26T00:14:59.579Z,5.25
2019-02-26T00:15:48.631Z,5.25
2019-02-26T00:16:51.163Z,5.25
2019-02-26T00:17:53.186Z,5.25
2019-02-26T00:18:45.580Z,5.31
2019-02-26T00:19:45.447Z,5.31
2019-02-26T00:20:44.740Z,5.31
2019-02-26T00:21:54.630Z,5.37
2019-02-26T00:22:44.942Z,5.37
2019-02-26T00:23:53.272Z,5.44
2019-02-26T00:24:46.864Z,5.44
2019-02-26T00:25:44.993Z,5.44
2019-02-26T00:26:45.443Z,5.44
2019-02-26T00:27:58.734Z,5.44
2019-02-26T00:28:45.969Z,5.44
2019-02-26T00:29:55.441Z,5.44
2019-02-26T00:30:44.649Z,5.37
2019-02-26T00:31:57.865Z,5.37
2019-02-26T00:32:45.144Z,5.37
2019-02-26T00:33:44.907Z,5.25
2019-02-26T00:34:44.834Z,5.12
2019-02-26T00:35:50.420Z,5.12
2019-02-26T00:36:45.135Z,5.12
2019-02-26T00:37:56.007Z,5.12
2019-02-26T00:38:44.733Z,5.12
2019-02-26T00:39:56.487Z,5.12
2019-02-26T00:40:44.851Z,5.12
2019-02-26T00:41:44.752Z,5.12
2019-02-26T00:42:45.017Z,5.12
2019-02-26T00:43:44.656Z,5.12
2019-02-26T00:44:44.665Z,5.12
2019-02-26T00:45:44.752Z,5.06
2019-02-26T00:46:44.707Z,5.12
2019-02-26T00:47:46.498Z,5.12
2019-02-26T00:48:44.635Z,5.12
2019-02-26T00:49:53.621Z,5.06
2019-02-26T00:50:45.706Z,5.12
2019-02-26T00:51:52.963Z,5.06
2019-02-26T00:52:45.553Z,5.06
2019-02-26T00:53:44.696Z,5.12
2019-02-26T00:54:45.189Z,5.12
2019-02-26T00:55:44.974Z,5.12
2019-02-26T00:56:45.161Z,5.12
2019-02-26T00:57:45.198Z,5.12
2019-02-26T00:58:50.625Z,5.12
2019-02-26T00:59:48.305Z,5.12
2019-02-26T01:00:44.668Z,5.12
2019-02-26T01:01:59.398Z,5
2019-02-26T01:02:44.698Z,5
2019-02-26T01:03:52.085Z,5.06
2019-02-26T01:04:51.127Z,5
2019-02-26T01:05:45.711Z,5.06
2019-02-26T01:06:44.930Z,5
2019-02-26T01:07:54.577Z,5
2019-02-26T01:08:47.305Z,5
2019-02-26T01:09:44.574Z,4.94
2019-02-26T01:10:46.454Z,4.94
2019-02-26T01:11:54.107Z,4.94
2019-02-26T01:12:45.482Z,4.94
2019-02-26T01:13:44.883Z,4.94
2019-02-26T01:14:50.549Z,4.94
2019-02-26T01:15:44.654Z,4.87
2019-02-26T01:16:48.505Z,4.94
2019-02-26T01:17:45.103Z,4.94
2019-02-26T01:18:53.421Z,4.94
2019-02-26T01:19:44.693Z,4.87
2019-02-26T01:21:02.032Z,4.87
2019-02-26T01:21:44.584Z,4.87
2019-02-26T01:22:45.833Z,4.87
2019-02-26T01:23:44.693Z,4.87
2019-02-26T01:24:44.571Z,4.87
2019-02-26T01:25:44.843Z,4.87
2019-02-26T01:26:44.959Z,4.87
2019-02-26T01:28:00.346Z,4.87
2019-02-26T01:29:01.046Z,4.87
2019-02-26T01:30:00.360Z,4.81
2019-02-26T01:30:45.488Z,4.87
2019-02-26T01:31:45.227Z,4.81
2019-02-26T01:32:44.896Z,4.81
2019-02-26T01:33:57.492Z,4.81
2019-02-26T01:34:49.679Z,4.81
2019-02-26T01:35:45.036Z,4.81
2019-02-26T01:36:49.853Z,4.81
2019-02-26T01:37:44.860Z,4.81
2019-02-26T01:38:53.319Z,4.81
2019-02-26T01:39:54.046Z,4.69
2019-02-26T01:40:56.209Z,4.62
2019-02-26T01:41:58.922Z,4.56
2019-02-26T01:43:03.656Z,4.56
2019-02-26T01:43:44.402Z,4.56
2019-02-26T01:44:44.834Z,4.56
2019-02-26T01:45:55.590Z,4.56
2019-02-26T01:46:44.808Z,4.5
2019-02-26T01:47:52.994Z,4.5
2019-02-26T01:48:44.528Z,4.44
2019-02-26T01:49:51.295Z,4.44
2019-02-26T01:50:44.821Z,4.44
2019-02-26T01:51:54.130Z,4.44
2019-02-26T01:52:45.457Z,4.44
2019-02-26T01:53:53.807Z,4.31
2019-02-26T01:54:44.949Z,4.31
2019-02-26T01:55:50.695Z,4.25
2019-02-26T01:56:45.633Z,4.25
2019-02-26T01:57:45.164Z,4.31
2019-02-26T01:58:45.064Z,4.25
2019-02-26T01:59:44.768Z,4.31
2019-02-26T02:00:44.565Z,4.25
2019-02-26T02:01:56.160Z,4.31
2019-02-26T02:02:44.629Z,4.31
2019-02-26T02:03:56.498Z,4.31
2019-02-26T02:04:45.143Z,4.25
2019-02-26T02:05:54.921Z,4.31
2019-02-26T02:06:44.644Z,4.31
2019-02-26T02:07:56.204Z,4.25
2019-02-26T02:08:56.672Z,4.25
2019-02-26T02:10:02.623Z,4.31
2019-02-26T02:10:44.870Z,4.25
2019-02-26T02:11:44.986Z,4.25
2019-02-26T02:12:44.524Z,4.19
2019-02-26T02:13:44.549Z,4.19
2019-02-26T02:14:44.760Z,4.12
2019-02-26T02:15:46.786Z,4.19
2019-02-26T02:16:44.795Z,4.19
2019-02-26T02:17:44.784Z,4.12
2019-02-26T02:19:00.068Z,4.12
2019-02-26T02:19:46.340Z,4.19
2019-02-26T02:20:44.564Z,4.19
2019-02-26T02:21:44.733Z,4.19
2019-02-26T02:22:46.393Z,4.19
2019-02-26T02:23:53.053Z,4.19
2019-02-26T02:24:55.768Z,4.19
2019-02-26T02:25:45.929Z,4.19
2019-02-26T02:27:00.392Z,4.19
2019-02-26T02:28:04.377Z,4.19
2019-02-26T02:28:44.758Z,4.12
2019-02-26T02:29:57.928Z,4.06
2019-02-26T02:30:44.705Z,4.06
2019-02-26T02:31:44.561Z,4.06
2019-02-26T02:33:02.202Z,4.06
2019-02-26T02:33:44.684Z,4.06
2019-02-26T02:34:44.605Z,4.06
2019-02-26T02:35:44.537Z,4
2019-02-26T02:36:45.368Z,3.94
2019-02-26T02:37:44.739Z,3.94
2019-02-26T02:38:44.849Z,3.94
2019-02-26T02:39:45.070Z,3.94
2019-02-26T02:40:55.099Z,4
2019-02-26T02:41:55.116Z,3.94
2019-02-26T02:42:49.688Z,4
2019-02-26T02:43:45.901Z,3.94
2019-02-26T02:44:53.001Z,3.94
2019-02-26T02:45:44.657Z,3.94
2019-02-26T02:46:46.975Z,3.94
2019-02-26T02:47:44.824Z,4
2019-02-26T02:48:44.894Z,3.94
2019-02-26T02:49:44.762Z,3.94
2019-02-26T02:50:44.909Z,3.94
2019-02-26T02:51:44.476Z,3.87
2019-02-26T02:52:45.596Z,3.87
2019-02-26T02:53:59.458Z,3.87
2019-02-26T02:54:52.023Z,3.87
2019-02-26T02:55:51.804Z,3.87
2019-02-26T02:56:44.946Z,3.87
2019-02-26T02:58:00.564Z,3.87
2019-02-26T02:58:51.932Z,3.94
2019-02-26T02:59:45.482Z,3.87
2019-02-26T03:01:00.474Z,3.94
2019-02-26T03:01:57.234Z,3.87
2019-02-26T03:02:58.474Z,3.94
2019-02-26T03:04:01.324Z,3.94
2019-02-26T03:04:45.425Z,3.87
2019-02-26T03:05:46.198Z,3.87
2019-02-26T03:06:44.817Z,3.94
2019-02-26T03:07:56.554Z,3.94
2019-02-26T03:08:53.666Z,3.94
2019-02-26T03:09:46.146Z,3.94
2019-02-26T03:10:45.285Z,3.87
2019-02-26T03:11:55.179Z,3.94
2019-02-26T03:13:03.080Z,3.87
2019-02-26T03:13:54.056Z,3.81
2019-02-26T03:14:44.810Z,3.81
2019-02-26T03:15:44.548Z,3.81
2019-02-26T03:16:53.673Z,3.81
2019-02-26T03:17:44.581Z,3.75
2019-02-26T03:18:44.596Z,3.81
2019-02-26T03:19:44.482Z,3.81
2019-02-26T03:20:44.658Z,3.81
2019-02-26T03:21:55.136Z,3.75
2019-02-26T03:22:49.479Z,3.69
2019-02-26T03:23:45.937Z,3.75
2019-02-26T03:24:45.327Z,3.69
2019-02-26T03:25:55.290Z,3.69
2019-02-26T03:26:44.750Z,3.69
2019-02-26T03:27:44.829Z,3.69
2019-02-26T03:28:53.583Z,3.69
2019-02-26T03:30:02.247Z,3.69
2019-02-26T03:30:45.111Z,3.69
2019-02-26T03:31:55.787Z,3.69
2019-02-26T03:33:05.086Z,3.62
2019-02-26T03:33:44.666Z,3.62
2019-02-26T03:34:44.477Z,3.62
2019-02-26T03:35:44.534Z,3.62
2019-02-26T03:36:46.094Z,3.62
2019-02-26T03:37:44.618Z,3.56
2019-02-26T03:39:02.799Z,3.62
2019-02-26T03:39:44.575Z,3.56
2019-02-26T03:40:45.454Z,3.56
2019-02-26T03:41:56.573Z,3.5
2019-02-26T03:42:46.637Z,3.56
2019-02-26T03:43:44.519Z,3.5
2019-02-26T03:44:47.275Z,3.44
2019-02-26T03:45:48.381Z,3.44
2019-02-26T03:46:45.345Z,3.44
2019-02-26T03:47:44.366Z,3.44
2019-02-26T03:48:44.883Z,3.44
2019-02-26T03:49:45.261Z,3.44
2019-02-26T03:50:44.950Z,3.44
2019-02-26T03:51:44.683Z,3.37
2019-02-26T03:52:44.739Z,3.37
2019-02-26T03:53:44.514Z,3.31
2019-02-26T03:54:50.986Z,3.31
2019-02-26T03:55:44.854Z,3.31
2019-02-26T03:56:44.617Z,3.31
2019-02-26T03:58:02.355Z,3.25
2019-02-26T03:58:44.548Z,3.25
2019-02-26T03:59:44.471Z,3.25
2019-02-26T04:00:47.185Z,3.19
2019-02-26T04:01:44.541Z,3.19
2019-02-26T04:02:52.372Z,3.19
2019-02-26T04:03:45.230Z,3.12
2019-02-26T04:05:06.730Z,3.12
2019-02-26T04:05:44.809Z,3.12
2019-02-26T04:06:47.356Z,3.06
2019-02-26T04:07:45.027Z,3.06
2019-02-26T04:08:56.137Z,3.06
2019-02-26T04:09:58.696Z,3.06
2019-02-26T04:11:02.006Z,3
2019-02-26T04:11:55.669Z,3
2019-02-26T04:12:58.315Z,3
2019-02-26T04:13:56.920Z,3
2019-02-26T04:14:44.566Z,3
2019-02-26T04:15:44.403Z,3
2019-02-26T04:16:44.339Z,3
2019-02-26T04:17:44.467Z,2.94
2019-02-26T04:18:44.578Z,2.94
2019-02-26T04:19:44.885Z,2.94
2019-02-26T04:20:46.169Z,2.94
2019-02-26T04:21:44.428Z,2.87
2019-02-26T04:22:57.307Z,2.87
2019-02-26T04:23:46.922Z,2.87
2019-02-26T04:24:44.308Z,2.87
2019-02-26T04:25:44.449Z,2.94
2019-02-26T04:26:45.039Z,2.87
2019-02-26T04:27:44.408Z,2.81
2019-02-26T04:28:47.845Z,2.87
2019-02-26T04:29:49.591Z,2.81
2019-02-26T04:30:52.650Z,2.81
2019-02-26T04:31:57.835Z,2.87
2019-02-26T04:32:49.225Z,2.81
2019-02-26T04:33:44.336Z,2.87
2019-02-26T04:34:44.423Z,2.81
2019-02-26T04:35:55.673Z,2.87
2019-02-26T04:36:47.347Z,2.81
2019-02-26T04:37:44.576Z,2.87
2019-02-26T04:38:55.771Z,2.81
2019-02-26T04:39:47.911Z,2.87
2019-02-26T04:40:44.361Z,2.94
2019-02-26T04:41:44.345Z,2.94
2019-02-26T04:42:46.358Z,2.94
2019-02-26T04:43:44.311Z,2.94
2019-02-26T04:45:08.642Z,2.94
2019-02-26T04:45:44.446Z,3
2019-02-26T04:46:44.481Z,3
2019-02-26T04:48:00.862Z,3.06
2019-02-26T04:48:44.574Z,3
2019-02-26T04:49:44.803Z,3
2019-02-26T04:50:44.980Z,3
2019-02-26T04:51:50.737Z,3
2019-02-26T04:52:44.368Z,3.06
2019-02-26T04:53:44.740Z,3
2019-02-26T04:54:44.748Z,3.06
2019-02-26T04:55:45.177Z,3.06
2019-02-26T04:56:51.206Z,3.06
2019-02-26T04:57:54.448Z,3.06
2019-02-26T04:58:48.059Z,3.06
2019-02-26T04:59:44.520Z,3.12
2019-02-26T05:00:45.617Z,3.06
2019-02-26T05:01:57.653Z,3.06
2019-02-26T05:02:44.287Z,3
2019-02-26T05:03:44.307Z,3
2019-02-26T05:04:46.140Z,3.06
2019-02-26T05:05:44.302Z,3
2019-02-26T05:06:44.587Z,3
2019-02-26T05:07:50.230Z,3
2019-02-26T05:08:44.583Z,3.06
2019-02-26T05:10:02.637Z,3.06
2019-02-26T05:11:00.081Z,3.06
2019-02-26T05:11:44.363Z,3.12
2019-02-26T05:12:44.330Z,3.06
2019-02-26T05:13:45.142Z,3.06
2019-02-26T05:14:44.358Z,3.06
2019-02-26T05:15:44.583Z,3.06
2019-02-26T05:16:44.327Z,3.12
2019-02-26T05:17:44.481Z,3.06
2019-02-26T05:18:58.744Z,3.06
2019-02-26T05:19:52.056Z,3
2019-02-26T05:20:48.793Z,3.06
2019-02-26T05:21:46.098Z,3
2019-02-26T05:22:44.435Z,3
2019-02-26T05:24:00.206Z,3
2019-02-26T05:24:53.052Z,2.94
2019-02-26T05:25:45.176Z,2.94
2019-02-26T05:26:44.463Z,2.94
2019-02-26T05:27:51.172Z,3
2019-02-26T05:28:51.801Z,3
2019-02-26T05:29:55.015Z,3
2019-02-26T05:30:51.551Z,3
2019-02-26T05:31:44.404Z,2.94
2019-02-26T05:32:44.395Z,3
2019-02-26T05:34:00.144Z,2.94
2019-02-26T05:34:51.081Z,2.94
2019-02-26T05:35:51.771Z,2.94
2019-02-26T05:36:46.717Z,2.94
2019-02-26T05:37:44.465Z,2.87
2019-02-26T05:38:44.472Z,2.87
2019-02-26T05:39:54.951Z,2.87
2019-02-26T05:40:56.055Z,2.87
2019-02-26T05:41:46.078Z,2.81
2019-02-26T05:42:44.722Z,2.87
2019-02-26T05:44:09.963Z,2.81
2019-02-26T05:44:44.520Z,2.81
2019-02-26T05:45:44.280Z,2.81
2019-02-26T05:47:01.740Z,2.81
2019-02-26T05:47:59.226Z,2.69
2019-02-26T05:48:51.316Z,2.69
2019-02-26T05:49:46.199Z,2.62
2019-02-26T05:50:45.056Z,2.62
2019-02-26T05:51:46.086Z,2.62
2019-02-26T05:52:44.310Z,2.62
2019-02-26T05:53:44.700Z,2.62
2019-02-26T05:54:44.292Z,2.62
2019-02-26T05:55:56.125Z,2.56
2019-02-26T05:56:50.221Z,2.56
2019-02-26T05:57:44.515Z,2.5
2019-02-26T05:58:47.400Z,2.56
2019-02-26T05:59:44.273Z,2.5
2019-02-26T06:00:44.634Z,2.56
2019-02-26T06:01:58.520Z,2.62
2019-02-26T06:02:51.301Z,2.56
2019-02-26T06:03:52.227Z,2.62
2019-02-26T06:04:47.079Z,2.56
2019-02-26T06:06:00.773Z,2.62
2019-02-26T06:06:44.452Z,2.62
2019-02-26T06:07:44.458Z,2.56
2019-02-26T06:08:44.475Z,2.62
2019-02-26T06:09:59.256Z,2.56
2019-02-26T06:10:44.598Z,2.62
2019-02-26T06:11:50.317Z,2.56
2019-02-26T06:12:46.980Z,2.56
2019-02-26T06:13:44.445Z,2.62
2019-02-26T06:14:44.417Z,2.5
2019-02-26T06:15:44.307Z,2.56
2019-02-26T06:16:56.084Z,2.44
2019-02-26T06:17:56.135Z,2.37
2019-02-26T06:18:54.624Z,2.37
2019-02-26T06:19:45.414Z,2.37
2019-02-26T06:20:46.092Z,2.37
2019-02-26T06:21:56.781Z,2.31
2019-02-26T06:22:45.037Z,2.31
2019-02-26T06:23:44.289Z,2.25
2019-02-26T06:24:44.368Z,2.25
2019-02-26T06:25:44.267Z,2.25
2019-02-26T06:26:45.806Z,2.25
2019-02-26T06:27:44.705Z,2.25
2019-02-26T06:28:53.149Z,2.25
2019-02-26T06:29:44.517Z,2.25
2019-02-26T06:30:45.045Z,2.25
2019-02-26T06:31:49.650Z,2.25
2019-02-26T06:32:45.110Z,2.25
2019-02-26T06:33:48.070Z,2.25
2019-02-26T06:34:43.983Z,2.31
2019-02-26T06:35:43.986Z,2.31
2019-02-26T06:36:53.423Z,2.37
2019-02-26T06:37:43.986Z,2.37
2019-02-26T06:38:43.987Z,2.44
2019-02-26T06:39:44.330Z,2.44
2019-02-26T06:40:51.589Z,2.44
2019-02-26T06:41:51.434Z,2.5
2019-02-26T06:42:44.228Z,2.5
2019-02-26T06:43:55.338Z,2.5
2019-02-26T06:44:51.613Z,2.5
2019-02-26T06:45:48.033Z,2.5
2019-02-26T06:46:44.238Z,2.56
2019-02-26T06:47:58.686Z,2.56
2019-02-26T06:48:44.419Z,2.56
2019-02-26T06:49:52.891Z,2.56
2019-02-26T06:50:44.343Z,2.62
2019-02-26T06:51:54.444Z,2.62
2019-02-26T06:52:51.042Z,2.62
2019-02-26T06:54:01.117Z,2.62
2019-02-26T06:55:07.716Z,2.62
2019-02-26T06:55:44.513Z,2.62
2019-02-26T06:56:52.968Z,2.62
2019-02-26T06:57:55.287Z,2.62
2019-02-26T06:58:47.708Z,2.62
2019-02-26T06:59:44.101Z,2.56
2019-02-26T07:00:55.755Z,2.56
2019-02-26T07:01:44.118Z,2.56
2019-02-26T07:02:46.587Z,2.5
2019-02-26T07:03:44.189Z,2.56
2019-02-26T07:04:44.209Z,2.5
2019-02-26T07:05:46.785Z,2.5
2019-02-26T07:06:44.224Z,2.44
2019-02-26T07:07:45.968Z,2.5
2019-02-26T07:08:53.763Z,2.37
2019-02-26T07:09:44.371Z,2.44
2019-02-26T07:10:44.462Z,2.5
2019-02-26T07:11:44.898Z,2.5
2019-02-26T07:12:50.765Z,2.5
2019-02-26T07:13:46.688Z,2.5
2019-02-26T07:14:58.363Z,2.56
2019-02-26T07:15:46.146Z,2.56
2019-02-26T07:16:44.309Z,2.56
2019-02-26T07:17:46.592Z,2.62
2019-02-26T07:18:44.127Z,2.62
2019-02-26T07:19:45.029Z,2.69
2019-02-26T07:21:00.474Z,2.69
2019-02-26T07:21:53.186Z,2.69
2019-02-26T07:22:51.833Z,2.75
2019-02-26T07:23:44.057Z,2.75
2019-02-26T07:24:54.127Z,2.81
2019-02-26T07:25:44.430Z,2.75
2019-02-26T07:26:48.581Z,2.81
2019-02-26T07:27:44.585Z,2.87
2019-02-26T07:28:51.234Z,2.87
2019-02-26T07:29:52.593Z,2.94
2019-02-26T07:30:47.219Z,2.94
2019-02-26T07:31:44.420Z,2.94
2019-02-26T07:32:48.589Z,3
2019-02-26T07:33:44.307Z,3
2019-02-26T07:34:52.399Z,3.06
2019-02-26T07:35:44.505Z,3.06
2019-02-26T07:36:52.702Z,3.12
2019-02-26T07:37:44.221Z,3.12
2019-02-26T07:38:56.714Z,3.12
2019-02-26T07:39:51.777Z,3.12
2019-02-26T07:40:44.769Z,3.19
2019-02-26T07:41:54.541Z,3.25
2019-02-26T07:42:49.823Z,3.25
2019-02-26T07:43:55.014Z,3.31
2019-02-26T07:44:44.372Z,3.31
2019-02-26T07:45:44.608Z,3.37
2019-02-26T07:46:45.916Z,3.37
2019-02-26T07:47:45.536Z,3.37
2019-02-26T07:49:04.668Z,3.5
2019-02-26T07:49:44.894Z,3.5
2019-02-26T07:50:50.979Z,3.56
2019-02-26T07:51:45.061Z,3.56
2019-02-26T07:52:59.548Z,3.62
2019-02-26T07:54:00.859Z,3.69
2019-02-26T07:54:52.075Z,3.69
2019-02-26T07:55:44.436Z,3.75
2019-02-26T07:56:44.012Z,3.81
2019-02-26T07:57:53.475Z,3.81
2019-02-26T07:58:44.477Z,3.87
2019-02-26T07:59:50.450Z,3.87
2019-02-26T08:00:52.579Z,3.94
2019-02-26T08:01:49.903Z,3.87
2019-02-26T08:02:44.014Z,3.87
2019-02-26T08:03:53.437Z,3.94
2019-02-26T08:04:44.112Z,3.87
2019-02-26T08:05:44.231Z,4
2019-02-26T08:06:44.012Z,4
2019-02-26T08:07:56.769Z,4.06
2019-02-26T08:08:49.140Z,4.06
2019-02-26T08:09:44.239Z,4.12
2019-02-26T08:10:53.365Z,4.19
2019-02-26T08:11:49.334Z,4.19
2019-02-26T08:12:44.242Z,4.25
2019-02-26T08:13:44.316Z,4.25
2019-02-26T08:14:50.374Z,4.31
2019-02-26T08:15:44.482Z,4.31
2019-02-26T08:16:44.193Z,4.37
2019-02-26T08:18:04.881Z,4.37
2019-02-26T08:18:44.217Z,4.37
2019-02-26T08:19:49.653Z,4.44
2019-02-26T08:20:44.098Z,4.5
2019-02-26T08:21:57.227Z,4.5
2019-02-26T08:22:44.054Z,4.56
2019-02-26T08:23:52.934Z,4.56
2019-02-26T08:24:58.221Z,4.62
2019-02-26T08:25:44.134Z,4.62
2019-02-26T08:26:49.934Z,4.69
2019-02-26T08:27:44.366Z,4.69
2019-02-26T08:28:48.410Z,4.69
2019-02-26T08:29:44.090Z,4.75
2019-02-26T08:30:57.411Z,4.75
2019-02-26T08:31:58.882Z,4.87
2019-02-26T08:33:04.670Z,4.87
2019-02-26T08:33:52.018Z,4.94
2019-02-26T08:34:45.824Z,5
2019-02-26T08:35:44.727Z,5
2019-02-26T08:36:47.082Z,5.06
2019-02-26T08:37:44.150Z,5.12
2019-02-26T08:38:45.838Z,5.12
2019-02-26T08:39:44.233Z,5.19
2019-02-26T08:40:44.267Z,5.19
2019-02-26T08:41:44.562Z,5.25
2019-02-26T08:42:44.472Z,5.25
2019-02-26T08:43:58.819Z,5.31
2019-02-26T08:44:58.384Z,5.37
2019-02-26T08:45:45.802Z,5.37
2019-02-26T08:46:49.221Z,5.44
2019-02-26T08:47:44.092Z,5.5
2019-02-26T08:48:51.034Z,5.56
2019-02-26T08:49:47.752Z,5.62
2019-02-26T08:50:46.634Z,5.56
2019-02-26T08:51:44.345Z,5.62
2019-02-26T08:52:58.912Z,5.69
2019-02-26T08:53:57.382Z,5.69
2019-02-26T08:54:44.137Z,5.81
2019-02-26T08:55:44.132Z,5.81
2019-02-26T08:56:44.068Z,5.94
2019-02-26T08:57:44.669Z,6
2019-02-26T08:58:45.679Z,6
2019-02-26T08:59:54.828Z,6.06
2019-02-26T09:00:44.226Z,6.06
2019-02-26T09:01:44.393Z,6.19
2019-02-26T09:02:56.934Z,6.19
2019-02-26T09:03:44.100Z,6.25
2019-02-26T09:04:48.173Z,6.25
2019-02-26T09:05:44.305Z,6.31
2019-02-26T09:06:44.069Z,6.44
2019-02-26T09:07:50.869Z,6.5
2019-02-26T09:08:44.776Z,6.5
2019-02-26T09:09:57.845Z,6.56
2019-02-26T09:10:48.913Z,6.56
2019-02-26T09:11:45.185Z,6.69
2019-02-26T09:12:52.738Z,6.69
2019-02-26T09:13:44.236Z,6.75
2019-02-26T09:14:50.246Z,6.81
2019-02-26T09:15:44.601Z,6.87
2019-02-26T09:17:02.530Z,6.94
2019-02-26T09:17:44.768Z,6.94
2019-02-26T09:18:43.714Z,7.06
2019-02-26T09:19:44.356Z,7.06
2019-02-26T09:20:45.753Z,7.12
2019-02-26T09:21:55.032Z,7.19
2019-02-26T09:23:01.571Z,7.25
2019-02-26T09:24:04.651Z,7.31
2019-02-26T09:24:44.237Z,7.37
2019-02-26T09:26:04.500Z,7.37
2019-02-26T09:26:44.239Z,7.44
2019-02-26T09:27:44.373Z,7.5
2019-02-26T09:28:57.286Z,7.56
2019-02-26T09:29:51.653Z,7.56
2019-02-26T09:30:44.169Z,7.56
2019-02-26T09:31:45.736Z,7.62
2019-02-26T09:32:45.247Z,7.62
2019-02-26T09:33:45.802Z,7.69
2019-02-26T09:34:44.114Z,7.75
2019-02-26T09:35:56.833Z,7.75
2019-02-26T09:37:02.625Z,7.87
2019-02-26T09:38:00.947Z,7.94
2019-02-26T09:38:51.648Z,7.94
2019-02-26T09:39:44.121Z,8
2019-02-26T09:40:57.183Z,8
2019-02-26T09:41:45.841Z,8.06
2019-02-26T09:43:00.371Z,8.13
2019-02-26T09:43:48.393Z,8.06
2019-02-26T09:44:44.947Z,8.19
2019-02-26T09:45:53.052Z,8.19
2019-02-26T09:46:44.343Z,8.25
2019-02-26T09:47:58.423Z,8.31
2019-02-26T09:48:46.329Z,8.38
2019-02-26T09:49:43.882Z,8.44
2019-02-26T09:50:48.950Z,8.44
2019-02-26T09:51:44.150Z,8.5
2019-02-26T09:52:59.423Z,8.63
2019-02-26T09:53:44.369Z,8.63
2019-02-26T09:54:55.345Z,8.69
2019-02-26T09:55:44.139Z,8.69
2019-02-26T09:56:44.137Z,8.75
2019-02-26T09:57:44.358Z,8.81
2019-02-26T09:58:51.122Z,8.88
2019-02-26T09:59:43.818Z,9
2019-02-26T10:00:54.509Z,9.06
2019-02-26T10:01:43.845Z,9.06
2019-02-26T10:02:52.349Z,9.06
2019-02-26T10:03:43.848Z,9.06
2019-02-26T10:04:54.549Z,9.06
2019-02-26T10:05:58.068Z,9.13
2019-02-26T10:06:47.733Z,9.13
2019-02-26T10:07:44.233Z,9.19
2019-02-26T10:08:56.347Z,9.25
2019-02-26T10:09:48.775Z,9.31
2019-02-26T10:10:45.450Z,9.38
2019-02-26T10:11:51.855Z,9.38
2019-02-26T10:12:44.158Z,9.5
2019-02-26T10:13:51.434Z,9.5
2019-02-26T10:14:43.993Z,9.56
2019-02-26T10:15:45.089Z,9.56
2019-02-26T10:16:57.055Z,9.56
2019-02-26T10:17:45.493Z,9.69
2019-02-26T10:18:56.956Z,9.81
2019-02-26T10:19:43.887Z,9.75
2019-02-26T10:20:54.790Z,9.88
2019-02-26T10:21:45.190Z,9.88
2019-02-26T10:22:47.377Z,9.94
2019-02-26T10:24:01.775Z,10
2019-02-26T10:24:45.639Z,10.19
2019-02-26T10:25:45.480Z,10.31
2019-02-26T10:26:45.665Z,10.31
2019-02-26T10:27:48.041Z,10.38
2019-02-26T10:29:07.944Z,10.44
2019-02-26T10:29:50.133Z,10.44
2019-02-26T10:30:44.272Z,10.44
2019-02-26T10:31:43.797Z,10.56
2019-02-26T10:32:47.233Z,10.56
2019-02-26T10:33:51.012Z,10.69
2019-02-26T10:34:44.058Z,10.94
2019-02-26T10:35:50.116Z,11
2019-02-26T10:36:52.072Z,11.06
2019-02-26T10:37:44.219Z,11.12
2019-02-26T10:38:44.073Z,11.12
2019-02-26T10:39:55.141Z,11.12
2019-02-26T10:41:02.059Z,11.19
2019-02-26T10:41:46.987Z,11.12
2019-02-26T10:42:43.778Z,11.25
2019-02-26T10:43:44.137Z,11.31
2019-02-26T10:44:44.118Z,11.38
2019-02-26T10:45:55.037Z,11.38
2019-02-26T10:46:44.756Z,11.38
2019-02-26T10:47:44.381Z,11.38
2019-02-26T10:48:53.032Z,11.44
2019-02-26T10:49:56.603Z,11.44
2019-02-26T10:50:52.201Z,11.5
2019-02-26T10:51:44.161Z,11.56
2019-02-26T10:52:43.804Z,11.75
2019-02-26T10:53:44.214Z,11.75
2019-02-26T10:54:46.850Z,11.81
2019-02-26T10:55:43.940Z,11.88
2019-02-26T10:56:45.171Z,11.88
2019-02-26T10:57:44.143Z,11.94
2019-02-26T10:58:45.599Z,12.06
2019-02-26T10:59:45.709Z,12.13
2019-02-26T11:00:44.394Z,12.19
2019-02-26T11:01:44.110Z,12.19
2019-02-26T11:02:54.533Z,12.31
2019-02-26T11:03:55.383Z,12.31
2019-02-26T11:04:55.677Z,12.37
2019-02-26T11:05:52.577Z,12.44
2019-02-26T11:06:47.215Z,12.5
2019-02-26T11:07:43.864Z,12.63
2019-02-26T11:08:44.102Z,12.69
2019-02-26T11:09:59.124Z,12.69
2019-02-26T11:10:52.717Z,12.69
2019-02-26T11:11:43.846Z,12.75
2019-02-26T11:12:59.914Z,12.81
2019-02-26T11:13:54.014Z,12.81
2019-02-26T11:14:44.559Z,12.94
2019-02-26T11:15:44.107Z,12.94
2019-02-26T11:16:43.841Z,12.88
2019-02-26T11:17:56.197Z,12.94
2019-02-26T11:18:47.935Z,12.94
2019-02-26T11:19:43.909Z,12.94
2019-02-26T11:20:59.458Z,12.94
2019-02-26T11:21:43.698Z,13
2019-02-26T11:22:52.218Z,13.13
2019-02-26T11:23:46.668Z,13.06
2019-02-26T11:24:44.138Z,13.13
2019-02-26T11:25:43.754Z,13.19
2019-02-26T11:26:44.583Z,13.13
2019-02-26T11:27:48.713Z,13.19
2019-02-26T11:28:48.286Z,13.25
2019-02-26T11:29:43.915Z,13.31
2019-02-26T11:30:56.838Z,13.56
2019-02-26T11:31:49.921Z,13.56
2019-02-26T11:32:45.416Z,13.62
2019-02-26T11:33:44.069Z,13.69
2019-02-26T11:34:44.006Z,13.75
2019-02-26T11:35:51.761Z,13.81
2019-02-26T11:36:44.050Z,13.94
2019-02-26T11:37:58.385Z,14
2019-02-26T11:38:47.330Z,14.06
2019-02-26T11:39:43.728Z,14.13
2019-02-26T11:40:43.702Z,14.13
2019-02-26T11:41:43.768Z,14.19
2019-02-26T11:42:51.462Z,14.25
2019-02-26T11:43:44.135Z,14.38
2019-02-26T11:44:43.832Z,14.38
2019-02-26T11:45:45.550Z,14.38
2019-02-26T11:46:56.854Z,14.38
2019-02-26T11:47:44.081Z,14.38
2019-02-26T11:48:57.516Z,14.38
2019-02-26T11:49:46.997Z,14.44
2019-02-26T11:50:45.350Z,14.5
2019-02-26T11:51:44.005Z,14.5
2019-02-26T11:52:44.090Z,14.63
2019-02-26T11:53:46.475Z,14.63
2019-02-26T11:54:44.891Z,14.63
2019-02-26T11:55:45.528Z,14.69
2019-02-26T11:56:52.836Z,14.69
2019-02-26T11:57:50.033Z,14.69
2019-02-26T11:58:43.949Z,14.75
2019-02-26T11:59:43.717Z,14.81
2019-02-26T12:00:51.332Z,14.75
2019-02-26T12:01:43.725Z,14.81
2019-02-26T12:02:44.124Z,14.81
2019-02-26T12:03:44.255Z,14.87
2019-02-26T12:04:43.993Z,14.87
2019-02-26T12:05:44.641Z,14.87
2019-02-26T12:06:43.801Z,15
2019-02-26T12:07:43.671Z,15
2019-02-26T12:08:50.226Z,15.06
2019-02-26T12:09:44.734Z,15.13
2019-02-26T12:10:43.949Z,15.13
2019-02-26T12:11:44.045Z,15.13
2019-02-26T12:12:43.862Z,15.19
2019-02-26T12:13:53.330Z,15.25
2019-02-26T12:14:48.814Z,15.25
2019-02-26T12:15:43.839Z,15.31
2019-02-26T12:16:44.270Z,15.38
2019-02-26T12:17:43.666Z,15.38
2019-02-26T12:18:47.229Z,15.44
2019-02-26T12:19:43.830Z,15.44
2019-02-26T12:20:49.036Z,15.44
2019-02-26T12:21:43.665Z,15.5
2019-02-26T12:22:55.623Z,15.44
2019-02-26T12:23:47.013Z,15.5
2019-02-26T12:24:43.785Z,15.5
2019-02-26T12:25:44.089Z,15.56
2019-02-26T12:26:54.901Z,15.5
2019-02-26T12:27:48.422Z,15.5
2019-02-26T12:28:44.310Z,15.56
2019-02-26T12:29:54.850Z,15.5
2019-02-26T12:30:47.081Z,15.56
2019-02-26T12:31:45.485Z,15.56
2019-02-26T12:32:55.353Z,15.56
2019-02-26T12:33:45.468Z,15.5
2019-02-26T12:34:51.648Z,15.5
2019-02-26T12:35:44.112Z,15.56
2019-02-26T12:36:44.389Z,15.63
2019-02-26T12:38:21.240Z,15.63
2019-02-26T12:38:44.231Z,15.69
2019-02-26T12:39:58.045Z,15.69
2019-02-26T12:40:53.632Z,15.75
2019-02-26T12:41:48.352Z,15.88
2019-02-26T12:42:43.958Z,15.88
2019-02-26T12:43:46.706Z,15.88
2019-02-26T12:44:45.768Z,15.94
2019-02-26T12:45:44.338Z,16
2019-02-26T12:47:00.610Z,16.12
2019-02-26T12:47:55.445Z,16.12
2019-02-26T12:48:50.570Z,16.12
2019-02-26T12:49:45.409Z,16.12
2019-02-26T12:50:43.907Z,16.06
2019-02-26T12:51:43.891Z,16.12
2019-02-26T12:52:57.347Z,16.19
2019-02-26T12:53:50.314Z,16.25
2019-02-26T12:54:43.758Z,16.37
2019-02-26T12:55:44.048Z,16.37
2019-02-26T12:56:43.729Z,16.44
2019-02-26T12:57:59.742Z,16.56
2019-02-26T12:58:54.866Z,16.56
2019-02-26T12:59:44.083Z,16.62
2019-02-26T13:00:44.448Z,16.69
2019-02-26T13:01:52.187Z,16.69
2019-02-26T13:02:52.654Z,16.69
2019-02-26T13:03:55.645Z,16.75
2019-02-26T13:04:53.701Z,16.81
2019-02-26T13:05:51.959Z,16.75
2019-02-26T13:06:52.288Z,16.87
2019-02-26T13:07:44.086Z,16.81
2019-02-26T13:08:51.079Z,16.81
2019-02-26T13:10:58.602Z,16.87
2019-02-26T13:12:03.083Z,16.87
2019-02-26T13:13:08.115Z,16.94
2019-02-26T13:14:43.649Z,17
2019-02-26T13:15:45.425Z,17.06
2019-02-26T13:17:00.299Z,17
2019-02-26T13:17:54.785Z,17.06
2019-02-26T13:19:44.213Z,17
2019-02-26T13:20:43.382Z,17
2019-02-26T13:21:44.100Z,17
2019-02-26T13:22:46.243Z,17.06
2019-02-26T13:23:45.418Z,17.12